sensor_id;sensor_type;location;lat;lon;timestamp;temperature;humidity
39079;DHT22;24829;49.208;12.080;2023-05-19T00:01:29;11.90;99.90
39079;DHT22;24829;49.208;12.080;2023-05-19T00:03:57;11.90;99.90
39079;DHT22;24829;49.208;12.080;2023-05-19T00:06:25;11.80;99.90
39079;DHT22;24829;49.208;12.080;2023-05-19T00:09:03;11.80;99.90
39079;DHT22;24829;49.208;12.080;2023-05-19T00:11:29;11.80;99.90
39079;DHT22;24829;49.208;12.080;2023-05-19T00:13:56;11.80;99.90
39079;DHT22;24829;49.208;12.080;2023-05-19T00:16:23;11.80;99.90
39079;DHT22;24829;49.208;12.080;2023-05-19T00:18:49;11.80;99.90
39079;DHT22;24829;49.208;12.080;2023-05-19T00:21:16;11.80;99.90
39079;DHT22;24829;49.208;12.080;2023-05-19T00:23:42;11.90;99.90
39079;DHT22;24829;49.208;12.080;2023-05-19T00:26:08;11.80;99.90
39079;DHT22;24829;49.208;12.080;2023-05-19T00:28:33;11.80;99.90
39079;DHT22;24829;49.208;12.080;2023-05-19T00:30:59;11.80;99.90
39079;DHT22;24829;49.208;12.080;2023-05-19T00:33:26;11.90;99.90
39079;DHT22;24829;49.208;12.080;2023-05-19T00:35:52;11.90;99.90
39079;DHT22;24829;49.208;12.080;2023-05-19T00:38:17;11.80;99.90
39079;DHT22;24829;49.208;12.080;2023-05-19T00:40:43;11.80;99.90
39079;DHT22;24829;49.208;12.080;2023-05-19T00:43:09;11.70;99.90
39079;DHT22;24829;49.208;12.080;2023-05-19T00:45:35;11.70;99.90
39079;DHT22;24829;49.208;12.080;2023-05-19T00:48:00;11.70;99.90
39079;DHT22;24829;49.208;12.080;2023-05-19T00:50:26;11.70;99.90
39079;DHT22;24829;49.208;12.080;2023-05-19T00:52:53;11.60;99.90
39079;DHT22;24829;49.208;12.080;2023-05-19T00:55:22;11.50;99.90
39079;DHT22;24829;49.208;12.080;2023-05-19T00:57:49;11.50;99.90
39079;DHT22;24829;49.208;12.080;2023-05-19T01:00:15;11.60;99.90
39079;DHT22;24829;49.208;12.080;2023-05-19T01:02:42;11.60;99.90
39079;DHT22;24829;49.208;12.080;2023-05-19T01:05:08;11.60;99.90
39079;DHT22;24829;49.208;12.080;2023-05-19T01:07:33;11.50;99.90
39079;DHT22;24829;49.208;12.080;2023-05-19T01:09:59;11.50;99.90
39079;DHT22;24829;49.208;12.080;2023-05-19T01:12:25;11.50;99.90
39079;DHT22;24829;49.208;12.080;2023-05-19T01:14:51;11.40;99.90
39079;DHT22;24829;49.208;12.080;2023-05-19T01:20:02;11.40;99.90
39079;DHT22;24829;49.208;12.080;2023-05-19T01:30:42;11.40;99.90
39079;DHT22;24829;49.208;12.080;2023-05-19T01:33:10;11.30;99.90
39079;DHT22;24829;49.208;12.080;2023-05-19T01:35:37;11.30;99.90
39079;DHT22;24829;49.208;12.080;2023-05-19T01:38:06;11.30;99.90
39079;DHT22;24829;49.208;12.080;2023-05-19T01:40:32;11.20;99.90
39079;DHT22;24829;49.208;12.080;2023-05-19T01:42:59;11.20;99.90
39079;DHT22;24829;49.208;12.080;2023-05-19T01:45:27;11.10;99.90
39079;DHT22;24829;49.208;12.080;2023-05-19T01:47:55;11.10;99.90
39079;DHT22;24829;49.208;12.080;2023-05-19T01:50:22;11.10;99.90
39079;DHT22;24829;49.208;12.080;2023-05-19T01:52:47;11.10;99.90
39079;DHT22;24829;49.208;12.080;2023-05-19T01:55:13;11.10;99.90
39079;DHT22;24829;49.208;12.080;2023-05-19T02:06:40;10.90;99.90
39079;DHT22;24829;49.208;12.080;2023-05-19T02:09:14;10.80;99.90
39079;DHT22;24829;49.208;12.080;2023-05-19T02:14:37;10.70;99.90
39079;DHT22;24829;49.208;12.080;2023-05-19T02:17:03;10.70;99.90
39079;DHT22;24829;49.208;12.080;2023-05-19T02:19:32;10.70;99.90
39079;DHT22;24829;49.208;12.080;2023-05-19T02:21:58;10.70;99.90
39079;DHT22;24829;49.208;12.080;2023-05-19T02:24:23;10.70;99.90
39079;DHT22;24829;49.208;12.080;2023-05-19T02:26:50;10.60;99.90
39079;DHT22;24829;49.208;12.080;2023-05-19T02:29:16;10.50;99.90
39079;DHT22;24829;49.208;12.080;2023-05-19T02:31:42;10.50;99.90
39079;DHT22;24829;49.208;12.080;2023-05-19T02:34:07;10.50;99.90
39079;DHT22;24829;49.208;12.080;2023-05-19T02:36:34;10.40;99.90
39079;DHT22;24829;49.208;12.080;2023-05-19T02:39:01;10.40;99.90
39079;DHT22;24829;49.208;12.080;2023-05-19T02:41:27;10.40;99.90
39079;DHT22;24829;49.208;12.080;2023-05-19T02:43:53;10.50;99.90
39079;DHT22;24829;49.208;12.080;2023-05-19T02:46:18;10.50;99.90
39079;DHT22;24829;49.208;12.080;2023-05-19T02:48:44;10.60;99.90
39079;DHT22;24829;49.208;12.080;2023-05-19T02:51:10;10.50;99.90
39079;DHT22;24829;49.208;12.080;2023-05-19T02:53:35;10.50;99.90
39079;DHT22;24829;49.208;12.080;2023-05-19T02:56:01;10.50;99.90
39079;DHT22;24829;49.208;12.080;2023-05-19T02:58:27;10.40;99.90
39079;DHT22;24829;49.208;12.080;2023-05-19T03:00:52;10.50;99.90
39079;DHT22;24829;49.208;12.080;2023-05-19T03:03:18;10.50;99.90
39079;DHT22;24829;49.208;12.080;2023-05-19T03:05:43;10.40;99.90
39079;DHT22;24829;49.208;12.080;2023-05-19T03:08:10;10.40;99.90
39079;DHT22;24829;49.208;12.080;2023-05-19T03:10:35;10.40;99.90
39079;DHT22;24829;49.208;12.080;2023-05-19T03:13:01;10.40;99.90
39079;DHT22;24829;49.208;12.080;2023-05-19T03:15:26;10.40;99.90
39079;DHT22;24829;49.208;12.080;2023-05-19T03:17:52;10.50;99.90
39079;DHT22;24829;49.208;12.080;2023-05-19T03:20:17;10.50;99.90
39079;DHT22;24829;49.208;12.080;2023-05-19T03:22:43;10.60;99.90
39079;DHT22;24829;49.208;12.080;2023-05-19T03:25:09;10.60;99.90
39079;DHT22;24829;49.208;12.080;2023-05-19T03:27:34;10.50;99.90
39079;DHT22;24829;49.208;12.080;2023-05-19T03:30:00;10.50;99.90
39079;DHT22;24829;49.208;12.080;2023-05-19T03:32:25;10.50;99.90
39079;DHT22;24829;49.208;12.080;2023-05-19T03:34:51;10.50;99.90
39079;DHT22;24829;49.208;12.080;2023-05-19T03:37:16;10.50;99.90
39079;DHT22;24829;49.208;12.080;2023-05-19T03:39:42;10.40;99.90
39079;DHT22;24829;49.208;12.080;2023-05-19T03:42:08;10.40;99.90
39079;DHT22;24829;49.208;12.080;2023-05-19T03:44:33;10.40;99.90
39079;DHT22;24829;49.208;12.080;2023-05-19T03:46:59;10.50;99.90
39079;DHT22;24829;49.208;12.080;2023-05-19T03:49:24;10.60;99.90
39079;DHT22;24829;49.208;12.080;2023-05-19T03:51:50;10.60;99.90
39079;DHT22;24829;49.208;12.080;2023-05-19T03:54:15;10.70;99.90
39079;DHT22;24829;49.208;12.080;2023-05-19T03:56:42;10.70;99.90
39079;DHT22;24829;49.208;12.080;2023-05-19T03:59:07;10.60;99.90
39079;DHT22;24829;49.208;12.080;2023-05-19T04:01:35;10.70;99.90
39079;DHT22;24829;49.208;12.080;2023-05-19T04:04:01;10.70;99.90
39079;DHT22;24829;49.208;12.080;2023-05-19T04:06:27;10.70;99.90
39079;DHT22;24829;49.208;12.080;2023-05-19T04:08:52;10.70;99.90
39079;DHT22;24829;49.208;12.080;2023-05-19T04:11:18;10.70;99.90
39079;DHT22;24829;49.208;12.080;2023-05-19T04:13:44;10.70;99.90
39079;DHT22;24829;49.208;12.080;2023-05-19T04:16:10;10.60;99.90
39079;DHT22;24829;49.208;12.080;2023-05-19T04:18:35;10.60;99.90
39079;DHT22;24829;49.208;12.080;2023-05-19T04:21:01;10.60;99.90
39079;DHT22;24829;49.208;12.080;2023-05-19T04:23:26;10.60;99.90
39079;DHT22;24829;49.208;12.080;2023-05-19T04:25:52;10.70;99.90
39079;DHT22;24829;49.208;12.080;2023-05-19T04:28:18;10.60;99.90
39079;DHT22;24829;49.208;12.080;2023-05-19T04:30:44;10.60;99.90
39079;DHT22;24829;49.208;12.080;2023-05-19T04:33:11;10.50;99.90
39079;DHT22;24829;49.208;12.080;2023-05-19T04:35:37;10.50;99.90
39079;DHT22;24829;49.208;12.080;2023-05-19T04:38:04;10.60;99.90
39079;DHT22;24829;49.208;12.080;2023-05-19T04:40:29;10.50;99.90
39079;DHT22;24829;49.208;12.080;2023-05-19T04:42:56;10.70;99.90
39079;DHT22;24829;49.208;12.080;2023-05-19T04:45:22;10.70;99.90
39079;DHT22;24829;49.208;12.080;2023-05-19T04:47:50;10.70;99.90
39079;DHT22;24829;49.208;12.080;2023-05-19T04:50:17;10.70;99.90
39079;DHT22;24829;49.208;12.080;2023-05-19T04:52:43;10.70;99.90
39079;DHT22;24829;49.208;12.080;2023-05-19T04:55:11;10.80;99.90
39079;DHT22;24829;49.208;12.080;2023-05-19T04:57:37;10.80;99.90
39079;DHT22;24829;49.208;12.080;2023-05-19T05:00:04;10.80;99.90
39079;DHT22;24829;49.208;12.080;2023-05-19T05:02:32;10.80;99.90
39079;DHT22;24829;49.208;12.080;2023-05-19T05:04:58;10.90;99.90
39079;DHT22;24829;49.208;12.080;2023-05-19T05:07:24;10.90;99.90
39079;DHT22;24829;49.208;12.080;2023-05-19T05:09:50;10.90;99.90
39079;DHT22;24829;49.208;12.080;2023-05-19T05:12:17;10.90;99.90
39079;DHT22;24829;49.208;12.080;2023-05-19T05:14:43;10.90;99.90
39079;DHT22;24829;49.208;12.080;2023-05-19T05:17:10;10.90;99.90
39079;DHT22;24829;49.208;12.080;2023-05-19T05:19:36;11.00;99.90
39079;DHT22;24829;49.208;12.080;2023-05-19T05:22:02;11.00;99.90
39079;DHT22;24829;49.208;12.080;2023-05-19T05:24:29;11.00;99.90
39079;DHT22;24829;49.208;12.080;2023-05-19T05:26:54;11.10;99.90
39079;DHT22;24829;49.208;12.080;2023-05-19T05:29:20;11.10;99.90
39079;DHT22;24829;49.208;12.080;2023-05-19T05:31:45;11.10;99.90
39079;DHT22;24829;49.208;12.080;2023-05-19T05:34:11;11.20;99.90
39079;DHT22;24829;49.208;12.080;2023-05-19T05:36:37;11.30;99.90
39079;DHT22;24829;49.208;12.080;2023-05-19T05:39:02;11.30;99.90
39079;DHT22;24829;49.208;12.080;2023-05-19T05:41:29;11.50;99.90
39079;DHT22;24829;49.208;12.080;2023-05-19T05:44:00;11.70;99.90
39079;DHT22;24829;49.208;12.080;2023-05-19T05:46:25;11.80;99.90
39079;DHT22;24829;49.208;12.080;2023-05-19T05:48:51;11.70;99.90
39079;DHT22;24829;49.208;12.080;2023-05-19T05:51:20;11.70;99.90
39079;DHT22;24829;49.208;12.080;2023-05-19T05:53:51;11.90;99.90
39079;DHT22;24829;49.208;12.080;2023-05-19T05:56:17;12.10;99.90
39079;DHT22;24829;49.208;12.080;2023-05-19T05:58:43;12.50;99.90
39079;DHT22;24829;49.208;12.080;2023-05-19T06:01:08;12.90;99.90
39079;DHT22;24829;49.208;12.080;2023-05-19T06:03:39;13.00;99.90
39079;DHT22;24829;49.208;12.080;2023-05-19T06:06:04;13.00;99.90
39079;DHT22;24829;49.208;12.080;2023-05-19T06:08:30;13.00;99.90
39079;DHT22;24829;49.208;12.080;2023-05-19T06:10:56;12.80;99.90
39079;DHT22;24829;49.208;12.080;2023-05-19T06:13:23;12.70;99.90
39079;DHT22;24829;49.208;12.080;2023-05-19T06:15:50;12.50;99.90
39079;DHT22;24829;49.208;12.080;2023-05-19T06:18:16;12.40;99.90
39079;DHT22;24829;49.208;12.080;2023-05-19T06:20:42;12.30;99.90
39079;DHT22;24829;49.208;12.080;2023-05-19T06:23:07;12.40;99.90
39079;DHT22;24829;49.208;12.080;2023-05-19T06:25:33;12.30;99.90
39079;DHT22;24829;49.208;12.080;2023-05-19T06:27:58;12.20;99.90
39079;DHT22;24829;49.208;12.080;2023-05-19T06:30:24;12.30;99.90
39079;DHT22;24829;49.208;12.080;2023-05-19T06:32:50;12.20;99.90
39079;DHT22;24829;49.208;12.080;2023-05-19T06:35:15;12.20;99.90
39079;DHT22;24829;49.208;12.080;2023-05-19T06:37:41;12.20;99.90
39079;DHT22;24829;49.208;12.080;2023-05-19T06:40:07;12.20;99.90
39079;DHT22;24829;49.208;12.080;2023-05-19T06:42:32;12.30;99.90
39079;DHT22;24829;49.208;12.080;2023-05-19T06:44:58;12.30;99.90
39079;DHT22;24829;49.208;12.080;2023-05-19T06:47:24;12.40;99.90
39079;DHT22;24829;49.208;12.080;2023-05-19T06:49:49;12.50;99.90
39079;DHT22;24829;49.208;12.080;2023-05-19T06:52:22;12.60;99.90
39079;DHT22;24829;49.208;12.080;2023-05-19T06:54:48;12.60;99.90
39079;DHT22;24829;49.208;12.080;2023-05-19T06:57:14;12.60;99.90
39079;DHT22;24829;49.208;12.080;2023-05-19T06:59:39;12.80;99.90
39079;DHT22;24829;49.208;12.080;2023-05-19T07:02:07;12.90;99.90
39079;DHT22;24829;49.208;12.080;2023-05-19T07:04:32;13.00;99.90
39079;DHT22;24829;49.208;12.080;2023-05-19T07:06:58;13.20;99.90
39079;DHT22;24829;49.208;12.080;2023-05-19T07:09:23;13.30;99.90
39079;DHT22;24829;49.208;12.080;2023-05-19T07:11:49;13.40;99.90
39079;DHT22;24829;49.208;12.080;2023-05-19T07:14:14;13.60;99.90
39079;DHT22;24829;49.208;12.080;2023-05-19T07:16:40;13.90;99.90
39079;DHT22;24829;49.208;12.080;2023-05-19T07:19:06;14.20;99.90
39079;DHT22;24829;49.208;12.080;2023-05-19T07:21:31;14.60;99.90
39079;DHT22;24829;49.208;12.080;2023-05-19T07:23:57;15.00;99.90
39079;DHT22;24829;49.208;12.080;2023-05-19T07:26:22;15.40;99.90
39079;DHT22;24829;49.208;12.080;2023-05-19T07:28:49;15.80;99.90
39079;DHT22;24829;49.208;12.080;2023-05-19T07:31:16;16.10;99.90
39079;DHT22;24829;49.208;12.080;2023-05-19T07:33:41;16.10;99.90
39079;DHT22;24829;49.208;12.080;2023-05-19T07:36:07;15.90;99.90
39079;DHT22;24829;49.208;12.080;2023-05-19T07:38:33;15.70;99.90
39079;DHT22;24829;49.208;12.080;2023-05-19T07:41:00;15.40;99.90
39079;DHT22;24829;49.208;12.080;2023-05-19T07:43:26;15.30;99.90
39079;DHT22;24829;49.208;12.080;2023-05-19T07:45:51;15.30;99.90
39079;DHT22;24829;49.208;12.080;2023-05-19T07:48:18;15.30;99.90
39079;DHT22;24829;49.208;12.080;2023-05-19T07:50:46;15.50;99.90
39079;DHT22;24829;49.208;12.080;2023-05-19T07:53:12;16.00;99.90
39079;DHT22;24829;49.208;12.080;2023-05-19T07:55:38;16.40;99.90
39079;DHT22;24829;49.208;12.080;2023-05-19T07:58:04;16.30;99.90
39079;DHT22;24829;49.208;12.080;2023-05-19T08:00:29;16.20;99.90
39079;DHT22;24829;49.208;12.080;2023-05-19T08:02:55;16.40;99.90
39079;DHT22;24829;49.208;12.080;2023-05-19T08:05:22;16.50;99.90
39079;DHT22;24829;49.208;12.080;2023-05-19T08:07:47;16.30;99.90
39079;DHT22;24829;49.208;12.080;2023-05-19T08:10:13;16.20;99.90
39079;DHT22;24829;49.208;12.080;2023-05-19T08:12:38;16.20;99.90
39079;DHT22;24829;49.208;12.080;2023-05-19T08:15:05;16.20;99.90
39079;DHT22;24829;49.208;12.080;2023-05-19T08:17:30;16.40;99.90
39079;DHT22;24829;49.208;12.080;2023-05-19T08:19:56;16.60;99.90
39079;DHT22;24829;49.208;12.080;2023-05-19T08:22:21;16.80;99.90
39079;DHT22;24829;49.208;12.080;2023-05-19T08:24:47;16.80;99.90
39079;DHT22;24829;49.208;12.080;2023-05-19T08:27:14;16.60;99.90
39079;DHT22;24829;49.208;12.080;2023-05-19T08:29:41;16.50;99.90
39079;DHT22;24829;49.208;12.080;2023-05-19T08:32:07;16.70;99.90
39079;DHT22;24829;49.208;12.080;2023-05-19T08:34:32;16.90;99.90
39079;DHT22;24829;49.208;12.080;2023-05-19T08:36:58;16.90;99.90
39079;DHT22;24829;49.208;12.080;2023-05-19T08:39:24;16.90;99.90
39079;DHT22;24829;49.208;12.080;2023-05-19T08:41:54;17.00;99.90
39079;DHT22;24829;49.208;12.080;2023-05-19T08:44:20;16.90;99.90
39079;DHT22;24829;49.208;12.080;2023-05-19T08:46:46;16.80;99.90
39079;DHT22;24829;49.208;12.080;2023-05-19T08:49:13;16.60;99.90
39079;DHT22;24829;49.208;12.080;2023-05-19T08:51:49;16.60;99.90
39079;DHT22;24829;49.208;12.080;2023-05-19T08:54:17;16.80;99.90
39079;DHT22;24829;49.208;12.080;2023-05-19T08:56:46;16.70;99.90
39079;DHT22;24829;49.208;12.080;2023-05-19T08:59:13;16.60;99.90
39079;DHT22;24829;49.208;12.080;2023-05-19T09:01:42;16.40;99.90
39079;DHT22;24829;49.208;12.080;2023-05-19T09:04:08;16.20;99.90
39079;DHT22;24829;49.208;12.080;2023-05-19T09:06:34;16.20;99.90
39079;DHT22;24829;49.208;12.080;2023-05-19T09:09:00;15.90;99.90
39079;DHT22;24829;49.208;12.080;2023-05-19T09:11:26;15.80;99.90
39079;DHT22;24829;49.208;12.080;2023-05-19T09:13:51;15.90;99.90
39079;DHT22;24829;49.208;12.080;2023-05-19T09:16:18;16.20;99.90
39079;DHT22;24829;49.208;12.080;2023-05-19T09:18:57;16.40;99.90
39079;DHT22;24829;49.208;12.080;2023-05-19T09:21:29;16.50;99.90
39079;DHT22;24829;49.208;12.080;2023-05-19T09:23:56;16.60;99.90
39079;DHT22;24829;49.208;12.080;2023-05-19T09:26:22;16.50;99.90
39079;DHT22;24829;49.208;12.080;2023-05-19T09:28:48;16.40;99.90
39079;DHT22;24829;49.208;12.080;2023-05-19T09:31:13;16.20;99.90
39079;DHT22;24829;49.208;12.080;2023-05-19T09:33:40;16.20;99.90
39079;DHT22;24829;49.208;12.080;2023-05-19T09:36:09;16.30;99.90
39079;DHT22;24829;49.208;12.080;2023-05-19T09:38:36;16.40;99.90
39079;DHT22;24829;49.208;12.080;2023-05-19T09:41:03;16.50;99.90
39079;DHT22;24829;49.208;12.080;2023-05-19T09:43:30;16.40;99.90
39079;DHT22;24829;49.208;12.080;2023-05-19T09:46:06;16.50;99.90
39079;DHT22;24829;49.208;12.080;2023-05-19T09:48:33;16.60;99.90
39079;DHT22;24829;49.208;12.080;2023-05-19T09:51:01;16.70;99.90
39079;DHT22;24829;49.208;12.080;2023-05-19T09:53:28;16.90;99.90
39079;DHT22;24829;49.208;12.080;2023-05-19T09:55:55;17.20;99.90
39079;DHT22;24829;49.208;12.080;2023-05-19T09:58:25;17.20;99.90
39079;DHT22;24829;49.208;12.080;2023-05-19T10:00:51;17.40;99.90
39079;DHT22;24829;49.208;12.080;2023-05-19T10:03:19;17.40;99.90
39079;DHT22;24829;49.208;12.080;2023-05-19T10:05:47;17.50;99.90
39079;DHT22;24829;49.208;12.080;2023-05-19T10:08:13;17.70;99.90
39079;DHT22;24829;49.208;12.080;2023-05-19T10:10:43;17.60;99.90
39079;DHT22;24829;49.208;12.080;2023-05-19T10:13:10;17.40;99.90
39079;DHT22;24829;49.208;12.080;2023-05-19T10:15:36;17.30;99.90
39079;DHT22;24829;49.208;12.080;2023-05-19T10:18:02;17.10;99.90
39079;DHT22;24829;49.208;12.080;2023-05-19T10:20:28;17.00;99.90
39079;DHT22;24829;49.208;12.080;2023-05-19T10:22:55;17.00;99.90
39079;DHT22;24829;49.208;12.080;2023-05-19T10:25:20;17.10;99.90
39079;DHT22;24829;49.208;12.080;2023-05-19T10:27:53;17.20;99.90
39079;DHT22;24829;49.208;12.080;2023-05-19T10:30:35;17.30;99.90
39079;DHT22;24829;49.208;12.080;2023-05-19T10:33:04;17.40;99.90
39079;DHT22;24829;49.208;12.080;2023-05-19T10:35:35;17.40;99.90
39079;DHT22;24829;49.208;12.080;2023-05-19T10:41:10;17.10;99.90
39079;DHT22;24829;49.208;12.080;2023-05-19T10:43:38;17.00;99.90
39079;DHT22;24829;49.208;12.080;2023-05-19T10:46:07;17.00;99.90
39079;DHT22;24829;49.208;12.080;2023-05-19T10:48:33;17.00;99.90
39079;DHT22;24829;49.208;12.080;2023-05-19T10:51:02;17.00;99.90
39079;DHT22;24829;49.208;12.080;2023-05-19T10:53:30;17.10;99.90
39079;DHT22;24829;49.208;12.080;2023-05-19T10:55:56;17.10;99.90
39079;DHT22;24829;49.208;12.080;2023-05-19T11:01:09;17.30;99.90
39079;DHT22;24829;49.208;12.080;2023-05-19T11:03:51;17.50;99.90
39079;DHT22;24829;49.208;12.080;2023-05-19T11:06:24;17.80;99.90
39079;DHT22;24829;49.208;12.080;2023-05-19T11:08:58;18.10;99.90
39079;DHT22;24829;49.208;12.080;2023-05-19T11:11:51;18.40;99.70
39079;DHT22;24829;49.208;12.080;2023-05-19T11:14:18;18.60;98.70
39079;DHT22;24829;49.208;12.080;2023-05-19T11:16:49;18.70;98.00
39079;DHT22;24829;49.208;12.080;2023-05-19T11:19:28;18.50;98.30
39079;DHT22;24829;49.208;12.080;2023-05-19T11:21:54;18.10;98.20
39079;DHT22;24829;49.208;12.080;2023-05-19T11:24:37;17.80;99.10
39079;DHT22;24829;49.208;12.080;2023-05-19T11:27:17;17.70;99.30
39079;DHT22;24829;49.208;12.080;2023-05-19T11:29:43;17.60;99.30
39079;DHT22;24829;49.208;12.080;2023-05-19T11:32:10;17.60;99.90
39079;DHT22;24829;49.208;12.080;2023-05-19T11:34:36;17.60;99.90
39079;DHT22;24829;49.208;12.080;2023-05-19T11:37:03;17.70;99.80
39079;DHT22;24829;49.208;12.080;2023-05-19T11:39:31;17.80;99.70
39079;DHT22;24829;49.208;12.080;2023-05-19T11:41:56;17.90;99.50
39079;DHT22;24829;49.208;12.080;2023-05-19T11:44:22;18.10;99.90
39079;DHT22;24829;49.208;12.080;2023-05-19T11:46:47;18.30;99.30
39079;DHT22;24829;49.208;12.080;2023-05-19T11:49:14;18.60;98.70
39079;DHT22;24829;49.208;12.080;2023-05-19T11:51:42;18.60;98.70
39079;DHT22;24829;49.208;12.080;2023-05-19T11:54:09;18.70;98.30
39079;DHT22;24829;49.208;12.080;2023-05-19T11:56:39;18.70;97.50
39079;DHT22;24829;49.208;12.080;2023-05-19T11:59:06;18.80;98.30
39079;DHT22;24829;49.208;12.080;2023-05-19T12:01:32;18.80;97.60
39079;DHT22;24829;49.208;12.080;2023-05-19T12:03:58;18.70;98.00
39079;DHT22;24829;49.208;12.080;2023-05-19T12:06:28;18.70;98.10
39079;DHT22;24829;49.208;12.080;2023-05-19T12:08:54;18.90;98.10
39079;DHT22;24829;49.208;12.080;2023-05-19T12:11:20;18.70;97.50
39079;DHT22;24829;49.208;12.080;2023-05-19T12:13:49;18.60;97.80
39079;DHT22;24829;49.208;12.080;2023-05-19T12:16:21;18.60;97.90
39079;DHT22;24829;49.208;12.080;2023-05-19T12:18:47;18.60;98.20
39079;DHT22;24829;49.208;12.080;2023-05-19T12:21:12;18.50;98.10
39079;DHT22;24829;49.208;12.080;2023-05-19T12:23:38;18.40;97.90
39079;DHT22;24829;49.208;12.080;2023-05-19T12:26:07;18.40;98.30
39079;DHT22;24829;49.208;12.080;2023-05-19T12:28:34;18.50;98.10
39079;DHT22;24829;49.208;12.080;2023-05-19T12:31:01;18.40;98.40
39079;DHT22;24829;49.208;12.080;2023-05-19T12:33:27;18.30;98.30
39079;DHT22;24829;49.208;12.080;2023-05-19T12:35:53;18.30;98.50
39079;DHT22;24829;49.208;12.080;2023-05-19T12:38:19;18.30;98.80
39079;DHT22;24829;49.208;12.080;2023-05-19T12:40:45;18.30;98.90
39079;DHT22;24829;49.208;12.080;2023-05-19T12:43:20;18.20;98.60
39079;DHT22;24829;49.208;12.080;2023-05-19T12:45:47;18.10;98.80
39079;DHT22;24829;49.208;12.080;2023-05-19T12:48:13;18.10;98.90
39079;DHT22;24829;49.208;12.080;2023-05-19T12:50:41;18.20;99.10
39079;DHT22;24829;49.208;12.080;2023-05-19T12:53:09;18.40;98.60
39079;DHT22;24829;49.208;12.080;2023-05-19T12:55:39;18.60;98.10
39079;DHT22;24829;49.208;12.080;2023-05-19T12:58:06;18.70;98.50
39079;DHT22;24829;49.208;12.080;2023-05-19T13:00:32;18.80;98.40
39079;DHT22;24829;49.208;12.080;2023-05-19T13:03:02;18.90;98.20
39079;DHT22;24829;49.208;12.080;2023-05-19T13:05:32;18.80;97.70
39079;DHT22;24829;49.208;12.080;2023-05-19T13:08:01;18.60;98.50
39079;DHT22;24829;49.208;12.080;2023-05-19T13:10:27;18.70;98.50
39079;DHT22;24829;49.208;12.080;2023-05-19T13:12:54;18.80;98.40
39079;DHT22;24829;49.208;12.080;2023-05-19T13:15:22;19.00;98.30
39079;DHT22;24829;49.208;12.080;2023-05-19T13:17:48;19.10;97.70
39079;DHT22;24829;49.208;12.080;2023-05-19T13:20:14;19.10;97.60
39079;DHT22;24829;49.208;12.080;2023-05-19T13:22:39;19.20;98.50
39079;DHT22;24829;49.208;12.080;2023-05-19T13:25:05;19.10;98.30
39079;DHT22;24829;49.208;12.080;2023-05-19T13:27:31;19.00;98.60
39079;DHT22;24829;49.208;12.080;2023-05-19T13:29:57;18.90;98.50
39079;DHT22;24829;49.208;12.080;2023-05-19T13:32:22;18.70;98.60
39079;DHT22;24829;49.208;12.080;2023-05-19T13:34:48;18.60;98.70
39079;DHT22;24829;49.208;12.080;2023-05-19T13:37:14;18.60;98.70
39079;DHT22;24829;49.208;12.080;2023-05-19T13:39:39;18.70;98.60
39079;DHT22;24829;49.208;12.080;2023-05-19T13:42:05;18.80;98.60
39079;DHT22;24829;49.208;12.080;2023-05-19T13:44:31;19.00;99.00
39079;DHT22;24829;49.208;12.080;2023-05-19T13:46:57;19.00;98.90
39079;DHT22;24829;49.208;12.080;2023-05-19T13:49:22;19.10;98.50
39079;DHT22;24829;49.208;12.080;2023-05-19T13:51:48;19.10;98.80
39079;DHT22;24829;49.208;12.080;2023-05-19T13:54:14;19.20;99.10
39079;DHT22;24829;49.208;12.080;2023-05-19T13:56:39;19.10;98.70
39079;DHT22;24829;49.208;12.080;2023-05-19T13:59:05;19.00;98.50
39079;DHT22;24829;49.208;12.080;2023-05-19T14:01:30;18.90;98.40
39079;DHT22;24829;49.208;12.080;2023-05-19T14:03:56;19.00;98.40
39079;DHT22;24829;49.208;12.080;2023-05-19T14:06:22;19.10;99.20
39079;DHT22;24829;49.208;12.080;2023-05-19T14:08:47;19.20;98.60
39079;DHT22;24829;49.208;12.080;2023-05-19T14:11:17;19.30;99.00
39079;DHT22;24829;49.208;12.080;2023-05-19T14:13:50;19.30;98.40
39079;DHT22;24829;49.208;12.080;2023-05-19T14:16:18;19.10;98.60
39079;DHT22;24829;49.208;12.080;2023-05-19T14:18:46;19.00;98.60
39079;DHT22;24829;49.208;12.080;2023-05-19T14:21:12;19.00;99.10
39079;DHT22;24829;49.208;12.080;2023-05-19T14:23:37;19.00;99.10
39079;DHT22;24829;49.208;12.080;2023-05-19T14:26:03;19.00;98.60
39079;DHT22;24829;49.208;12.080;2023-05-19T14:28:28;19.00;99.10
39079;DHT22;24829;49.208;12.080;2023-05-19T14:30:54;19.00;98.60
39079;DHT22;24829;49.208;12.080;2023-05-19T14:33:20;18.90;98.90
39079;DHT22;24829;49.208;12.080;2023-05-19T14:35:46;18.90;98.90
39079;DHT22;24829;49.208;12.080;2023-05-19T14:38:12;18.90;98.90
39079;DHT22;24829;49.208;12.080;2023-05-19T14:40:37;19.00;99.30
39079;DHT22;24829;49.208;12.080;2023-05-19T14:43:06;19.00;98.70
39079;DHT22;24829;49.208;12.080;2023-05-19T14:45:31;19.00;99.10
39079;DHT22;24829;49.208;12.080;2023-05-19T14:47:57;19.00;99.20
39079;DHT22;24829;49.208;12.080;2023-05-19T14:50:22;18.80;99.10
39079;DHT22;24829;49.208;12.080;2023-05-19T14:52:48;18.80;99.60
39079;DHT22;24829;49.208;12.080;2023-05-19T14:55:13;18.70;99.50
39079;DHT22;24829;49.208;12.080;2023-05-19T14:57:39;18.80;99.40
39079;DHT22;24829;49.208;12.080;2023-05-19T15:00:05;18.80;99.90
39079;DHT22;24829;49.208;12.080;2023-05-19T15:02:31;18.80;99.90
39079;DHT22;24829;49.208;12.080;2023-05-19T15:04:56;18.70;99.80
39079;DHT22;24829;49.208;12.080;2023-05-19T15:07:22;18.70;99.80
39079;DHT22;24829;49.208;12.080;2023-05-19T15:09:48;18.60;99.90
39079;DHT22;24829;49.208;12.080;2023-05-19T15:12:14;18.60;99.90
39079;DHT22;24829;49.208;12.080;2023-05-19T15:14:39;18.60;99.90
39079;DHT22;24829;49.208;12.080;2023-05-19T15:17:05;18.50;99.90
39079;DHT22;24829;49.208;12.080;2023-05-19T15:19:30;18.50;99.90
39079;DHT22;24829;49.208;12.080;2023-05-19T15:21:56;18.60;99.90
39079;DHT22;24829;49.208;12.080;2023-05-19T15:24:21;18.60;99.90
39079;DHT22;24829;49.208;12.080;2023-05-19T15:26:48;18.60;99.90
39079;DHT22;24829;49.208;12.080;2023-05-19T15:29:14;18.50;99.90
39079;DHT22;24829;49.208;12.080;2023-05-19T15:31:40;18.50;99.90
39079;DHT22;24829;49.208;12.080;2023-05-19T15:34:05;18.50;99.90
39079;DHT22;24829;49.208;12.080;2023-05-19T15:36:31;18.60;99.90
39079;DHT22;24829;49.208;12.080;2023-05-19T15:38:56;18.50;99.90
39079;DHT22;24829;49.208;12.080;2023-05-19T15:41:22;18.50;99.90